sensor_id;sensor_type;location;lat;lon;timestamp;pressure;altitude;pressure_sealevel;temperature;humidity
70546;BME280;58098;51.680;5.134;2022-12-22T00:02:25;100561.50;;;8.59;100.00
70546;BME280;58098;51.680;5.134;2022-12-22T00:05:22;100539.25;;;8.55;100.00
70546;BME280;58098;51.680;5.134;2022-12-22T00:08:06;100545.31;;;8.55;100.00
70546;BME280;58098;51.680;5.134;2022-12-22T00:10:51;100552.97;;;8.57;100.00
70546;BME280;58098;51.680;5.134;2022-12-22T00:13:36;100537.50;;;8.55;100.00
70546;BME280;58098;51.680;5.134;2022-12-22T00:16:20;100542.47;;;8.58;100.00
70546;BME280;58098;51.680;5.134;2022-12-22T00:19:12;100544.81;;;8.61;100.00
70546;BME280;58098;51.680;5.134;2022-12-22T00:22:18;100529.69;;;8.55;100.00
70546;BME280;58098;51.680;5.134;2022-12-22T00:25:03;100528.88;;;8.55;100.00
70546;BME280;58098;51.680;5.134;2022-12-22T00:27:47;100535.38;;;8.60;100.00
70546;BME280;58098;51.680;5.134;2022-12-22T00:30:31;100523.44;;;8.58;100.00
70546;BME280;58098;51.680;5.134;2022-12-22T00:33:18;100521.41;;;8.61;100.00
70546;BME280;58098;51.680;5.134;2022-12-22T00:36:03;100519.66;;;8.62;100.00
70546;BME280;58098;51.680;5.134;2022-12-22T00:38:48;100505.00;;;8.61;100.00
70546;BME280;58098;51.680;5.134;2022-12-22T00:41:32;100500.63;;;8.61;100.00
70546;BME280;58098;51.680;5.134;2022-12-22T00:44:16;100489.16;;;8.53;100.00
70546;BME280;58098;51.680;5.134;2022-12-22T00:47:00;100485.50;;;8.55;100.00
70546;BME280;58098;51.680;5.134;2022-12-22T00:49:46;100497.78;;;8.64;100.00
70546;BME280;58098;51.680;5.134;2022-12-22T00:52:31;100481.00;;;8.57;100.00
70546;BME280;58098;51.680;5.134;2022-12-22T00:55:19;100466.69;;;8.52;100.00
70546;BME280;58098;51.680;5.134;2022-12-22T00:58:07;100482.09;;;8.66;100.00
70546;BME280;58098;51.680;5.134;2022-12-22T01:00:53;100489.97;;;8.64;100.00
70546;BME280;58098;51.680;5.134;2022-12-22T01:03:37;100478.41;;;8.57;100.00
70546;BME280;58098;51.680;5.134;2022-12-22T01:06:21;100470.38;;;8.60;100.00
70546;BME280;58098;51.680;5.134;2022-12-22T01:09:05;100475.09;;;8.67;100.00
70546;BME280;58098;51.680;5.134;2022-12-22T01:11:49;100447.09;;;8.59;100.00
70546;BME280;58098;51.680;5.134;2022-12-22T01:14:33;100457.00;;;8.65;100.00
70546;BME280;58098;51.680;5.134;2022-12-22T01:17:17;100442.47;;;8.62;100.00
70546;BME280;58098;51.680;5.134;2022-12-22T01:20:01;100438.81;;;8.54;100.00
70546;BME280;58098;51.680;5.134;2022-12-22T01:22:45;100442.25;;;8.66;100.00
70546;BME280;58098;51.680;5.134;2022-12-22T01:25:28;100434.31;;;8.67;100.00
70546;BME280;58098;51.680;5.134;2022-12-22T01:28:16;100423.91;;;8.67;100.00
70546;BME280;58098;51.680;5.134;2022-12-22T01:31:32;100442.13;;;8.78;100.00
70546;BME280;58098;51.680;5.134;2022-12-22T01:34:16;100430.28;;;8.74;100.00
70546;BME280;58098;51.680;5.134;2022-12-22T01:37:01;100425.44;;;8.70;100.00
70546;BME280;58098;51.680;5.134;2022-12-22T01:39:44;100425.66;;;8.67;100.00
70546;BME280;58098;51.680;5.134;2022-12-22T01:42:32;100449.66;;;8.81;100.00
70546;BME280;58098;51.680;5.134;2022-12-22T01:45:26;100436.78;;;8.80;100.00
70546;BME280;58098;51.680;5.134;2022-12-22T01:48:15;100425.78;;;8.76;100.00
70546;BME280;58098;51.680;5.134;2022-12-22T01:51:02;100434.78;;;8.83;100.00
70546;BME280;58098;51.680;5.134;2022-12-22T01:53:47;100434.78;;;8.83;100.00
70546;BME280;58098;51.680;5.134;2022-12-22T01:56:32;100423.78;;;8.80;100.00
70546;BME280;58098;51.680;5.134;2022-12-22T01:59:16;100424.94;;;8.87;100.00
70546;BME280;58098;51.680;5.134;2022-12-22T02:02:02;100408.41;;;8.77;100.00
70546;BME280;58098;51.680;5.134;2022-12-22T02:04:47;100407.34;;;8.79;100.00
70546;BME280;58098;51.680;5.134;2022-12-22T02:10:38;100418.81;;;8.88;100.00
70546;BME280;58098;51.680;5.134;2022-12-22T02:13:42;100414.53;;;8.87;100.00
70546;BME280;58098;51.680;5.134;2022-12-22T02:16:44;100401.44;;;8.88;100.00
70546;BME280;58098;51.680;5.134;2022-12-22T02:20:01;100409.09;;;8.90;100.00
70546;BME280;58098;51.680;5.134;2022-12-22T02:26:02;100403.31;;;8.86;100.00
70546;BME280;58098;51.680;5.134;2022-12-22T02:28:50;100405.19;;;8.84;100.00
70546;BME280;58098;51.680;5.134;2022-12-22T02:31:36;100404.38;;;8.84;100.00
70546;BME280;58098;51.680;5.134;2022-12-22T02:34:20;100407.44;;;8.89;100.00
70546;BME280;58098;51.680;5.134;2022-12-22T02:37:20;100407.44;;;8.89;100.00
70546;BME280;58098;51.680;5.134;2022-12-22T02:40:12;100406.50;;;8.90;100.00
70546;BME280;58098;51.680;5.134;2022-12-22T02:43:18;100405.53;;;8.91;100.00
70546;BME280;58098;51.680;5.134;2022-12-22T02:49:05;100385.59;;;8.80;100.00
70546;BME280;58098;51.680;5.134;2022-12-22T02:51:59;100385.47;;;8.82;100.00
70546;BME280;58098;51.680;5.134;2022-12-22T02:54:47;100383.69;;;8.82;100.00
70546;BME280;58098;51.680;5.134;2022-12-22T02:57:32;100382.38;;;8.88;100.00
70546;BME280;58098;51.680;5.134;2022-12-22T03:00:17;100386.88;;;8.86;100.00
70546;BME280;58098;51.680;5.134;2022-12-22T03:03:01;100390.19;;;8.88;100.00
70546;BME280;58098;51.680;5.134;2022-12-22T03:05:45;100374.34;;;8.80;100.00
70546;BME280;58098;51.680;5.134;2022-12-22T03:08:29;100371.75;;;8.80;100.00
70546;BME280;58098;51.680;5.134;2022-12-22T03:11:12;100369.63;;;8.85;100.00
70546;BME280;58098;51.680;5.134;2022-12-22T03:13:56;100366.31;;;8.83;100.00
70546;BME280;58098;51.680;5.134;2022-12-22T03:16:40;100354.59;;;8.88;100.00
70546;BME280;58098;51.680;5.134;2022-12-22T03:19:24;100352.34;;;8.84;100.00
70546;BME280;58098;51.680;5.134;2022-12-22T03:22:08;100339.22;;;8.85;100.00
70546;BME280;58098;51.680;5.134;2022-12-22T03:24:52;100339.34;;;8.84;100.00
70546;BME280;58098;51.680;5.134;2022-12-22T03:27:36;100333.19;;;8.85;100.00
70546;BME280;58098;51.680;5.134;2022-12-22T03:30:01;100328.72;;;8.76;100.00
70546;BME280;58098;51.680;5.134;2022-12-22T03:32:26;100333.19;;;8.85;100.00
70546;BME280;58098;51.680;5.134;2022-12-22T03:34:52;100309.56;;;8.77;100.00
70546;BME280;58098;51.680;5.134;2022-12-22T03:37:17;100321.50;;;8.79;100.00
70546;BME280;58098;51.680;5.134;2022-12-22T03:39:42;100316.53;;;8.76;100.00
70546;BME280;58098;51.680;5.134;2022-12-22T03:42:11;100324.94;;;8.80;100.00
70546;BME280;58098;51.680;5.134;2022-12-22T03:44:55;100319.72;;;8.80;100.00
70546;BME280;58098;51.680;5.134;2022-12-22T03:47:39;100307.31;;;8.72;100.00
70546;BME280;58098;51.680;5.134;2022-12-22T03:50:04;100312.75;;;8.80;100.00
70546;BME280;58098;51.680;5.134;2022-12-22T03:52:30;100285.13;;;8.68;100.00
70546;BME280;58098;51.680;5.134;2022-12-22T03:54:55;100305.78;;;8.81;100.00
70546;BME280;58098;51.680;5.134;2022-12-22T03:57:21;100308.50;;;8.79;100.00
70546;BME280;58098;51.680;5.134;2022-12-22T03:59:46;100296.38;;;8.69;100.00
70546;BME280;58098;51.680;5.134;2022-12-22T04:02:11;100316.91;;;8.72;100.00
70546;BME280;58098;51.680;5.134;2022-12-22T04:04:36;100301.19;;;8.62;100.00
70546;BME280;58098;51.680;5.134;2022-12-22T04:07:02;100310.53;;;8.64;100.00
70546;BME280;58098;51.680;5.134;2022-12-22T04:09:27;100310.31;;;8.68;100.00
70546;BME280;58098;51.680;5.134;2022-12-22T04:11:53;100314.81;;;8.66;100.00
70546;BME280;58098;51.680;5.134;2022-12-22T04:14:37;100299.22;;;8.54;100.00
70546;BME280;58098;51.680;5.134;2022-12-22T04:17:03;100310.78;;;8.61;100.00
70546;BME280;58098;51.680;5.134;2022-12-22T04:19:30;100321.91;;;8.63;100.00
70546;BME280;58098;51.680;5.134;2022-12-22T04:21:55;100321.06;;;8.63;100.00
70546;BME280;58098;51.680;5.134;2022-12-22T04:24:21;100328.88;;;8.63;100.00
70546;BME280;58098;51.680;5.134;2022-12-22T04:26:46;100330.66;;;8.62;100.00
70546;BME280;58098;51.680;5.134;2022-12-22T04:29:11;100333.00;;;8.66;100.00
70546;BME280;58098;51.680;5.134;2022-12-22T04:31:37;100325.81;;;8.58;100.00
70546;BME280;58098;51.680;5.134;2022-12-22T04:34:02;100310.09;;;8.48;100.00
70546;BME280;58098;51.680;5.134;2022-12-22T04:36:27;100335.59;;;8.66;100.00
70546;BME280;58098;51.680;5.134;2022-12-22T04:38:53;100339.28;;;8.63;100.00
70546;BME280;58098;51.680;5.134;2022-12-22T04:41:18;100338.44;;;8.62;100.00
70546;BME280;58098;51.680;5.134;2022-12-22T04:43:43;100337.03;;;8.58;100.00
70546;BME280;58098;51.680;5.134;2022-12-22T04:46:09;100336.69;;;8.63;100.00
70546;BME280;58098;51.680;5.134;2022-12-22T04:48:34;100343.19;;;8.69;100.00
70546;BME280;58098;51.680;5.134;2022-12-22T04:51:00;100340.56;;;8.69;100.00
70546;BME280;58098;51.680;5.134;2022-12-22T04:53:26;100342.91;;;8.72;100.00
70546;BME280;58098;51.680;5.134;2022-12-22T04:55:58;100329.91;;;8.72;100.00
70546;BME280;58098;51.680;5.134;2022-12-22T04:58:24;100337.72;;;8.72;100.00
70546;BME280;58098;51.680;5.134;2022-12-22T05:00:49;100343.50;;;8.75;100.00
70546;BME280;58098;51.680;5.134;2022-12-22T05:03:14;100348.72;;;8.75;100.00
70546;BME280;58098;51.680;5.134;2022-12-22T05:05:40;100351.19;;;8.77;100.00
70546;BME280;58098;51.680;5.134;2022-12-22T05:08:05;100339.94;;;8.76;100.00
70546;BME280;58098;51.680;5.134;2022-12-22T05:10:31;100329.81;;;8.73;100.00
70546;BME280;58098;51.680;5.134;2022-12-22T05:12:56;100345.75;;;8.80;100.00
70546;BME280;58098;51.680;5.134;2022-12-22T05:15:24;100343.28;;;8.78;100.00
70546;BME280;58098;51.680;5.134;2022-12-22T05:17:50;100360.50;;;8.79;100.00
70546;BME280;58098;51.680;5.134;2022-12-22T05:20:15;100347.63;;;8.78;100.00
70546;BME280;58098;51.680;5.134;2022-12-22T05:22:41;100351.19;;;8.77;100.00
70546;BME280;58098;51.680;5.134;2022-12-22T05:25:07;100349.53;;;8.76;100.00
70546;BME280;58098;51.680;5.134;2022-12-22T05:27:32;100348.72;;;8.75;100.00
70546;BME280;58098;51.680;5.134;2022-12-22T05:29:58;100341.84;;;8.74;100.00
70546;BME280;58098;51.680;5.134;2022-12-22T05:32:23;100340.91;;;8.75;100.00
70546;BME280;58098;51.680;5.134;2022-12-22T05:34:48;100353.06;;;8.75;100.00
70546;BME280;58098;51.680;5.134;2022-12-22T05:37:14;100366.31;;;8.83;100.00
70546;BME280;58098;51.680;5.134;2022-12-22T05:39:39;100360.88;;;8.86;100.00
70546;BME280;58098;51.680;5.134;2022-12-22T05:42:04;100374.13;;;8.83;100.00
70546;BME280;58098;51.680;5.134;2022-12-22T05:44:30;100371.88;;;8.78;100.00
70546;BME280;58098;51.680;5.134;2022-12-22T05:46:55;100388.75;;;8.84;100.00
70546;BME280;58098;51.680;5.134;2022-12-22T05:49:20;100379.94;;;8.75;100.00
70546;BME280;58098;51.680;5.134;2022-12-22T05:51:46;100380.50;;;8.79;100.00
70546;BME280;58098;51.680;5.134;2022-12-22T05:54:11;100402.50;;;8.86;100.00
70546;BME280;58098;51.680;5.134;2022-12-22T05:56:36;100392.31;;;8.83;100.00
70546;BME280;58098;51.680;5.134;2022-12-22T05:59:02;100404.50;;;8.82;100.00
70546;BME280;58098;51.680;5.134;2022-12-22T06:01:27;100418.91;;;8.86;100.00
70546;BME280;58098;51.680;5.134;2022-12-22T06:03:52;100418.09;;;8.86;100.00
70546;BME280;58098;51.680;5.134;2022-12-22T06:06:18;100423.06;;;8.89;100.00
70546;BME280;58098;51.680;5.134;2022-12-22T06:08:43;100418.09;;;8.86;100.00
70546;BME280;58098;51.680;5.134;2022-12-22T06:11:08;100417.59;;;8.92;100.00
70546;BME280;58098;51.680;5.134;2022-12-22T06:13:34;100406.78;;;8.76;100.00
70546;BME280;58098;51.680;5.134;2022-12-22T06:15:59;100432.50;;;8.79;100.00
70546;BME280;58098;51.680;5.134;2022-12-22T06:18:24;100429.91;;;8.79;100.00
70546;BME280;58098;51.680;5.134;2022-12-22T06:20:50;100428.97;;;8.80;100.00
70546;BME280;58098;51.680;5.134;2022-12-22T06:23:16;100437.72;;;8.79;100.00
70546;BME280;58098;51.680;5.134;2022-12-22T06:25:42;100437.00;;;8.77;100.00
70546;BME280;58098;51.680;5.134;2022-12-22T06:28:07;100440.09;;;8.71;100.00
70546;BME280;58098;51.680;5.134;2022-12-22T06:30:32;100444.59;;;8.69;100.00
70546;BME280;58098;51.680;5.134;2022-12-22T06:32:58;100431.22;;;8.62;100.00
70546;BME280;58098;51.680;5.134;2022-12-22T06:35:24;100457.84;;;8.66;100.00
70546;BME280;58098;51.680;5.134;2022-12-22T06:37:49;100455.13;;;8.67;100.00
70546;BME280;58098;51.680;5.134;2022-12-22T06:40:14;100453.34;;;8.56;100.00
70546;BME280;58098;51.680;5.134;2022-12-22T06:42:40;100445.88;;;8.52;100.00
70546;BME280;58098;51.680;5.134;2022-12-22T06:45:24;100456.06;;;8.55;100.00
70546;BME280;58098;51.680;5.134;2022-12-22T06:47:49;100461.16;;;8.56;100.00
70546;BME280;58098;51.680;5.134;2022-12-22T06:50:14;100451.34;;;8.49;100.00
70546;BME280;58098;51.680;5.134;2022-12-22T06:52:40;100467.28;;;8.55;100.00
70546;BME280;58098;51.680;5.134;2022-12-22T06:55:05;100472.72;;;8.52;100.00
70546;BME280;58098;51.680;5.134;2022-12-22T06:57:31;100473.19;;;8.46;100.00
70546;BME280;58098;51.680;5.134;2022-12-22T06:59:56;100479.69;;;8.41;100.00
70546;BME280;58098;51.680;5.134;2022-12-22T07:02:21;100483.22;;;8.40;100.00
70546;BME280;58098;51.680;5.134;2022-12-22T07:04:47;100500.34;;;8.42;100.00
70546;BME280;58098;51.680;5.134;2022-12-22T07:07:12;100503.91;;;8.41;100.00
70546;BME280;58098;51.680;5.134;2022-12-22T07:09:37;100496.56;;;8.35;100.00
70546;BME280;58098;51.680;5.134;2022-12-22T07:12:03;100510.53;;;8.34;100.00
70546;BME280;58098;51.680;5.134;2022-12-22T07:14:28;100518.31;;;8.34;100.00
70546;BME280;58098;51.680;5.134;2022-12-22T07:16:53;100513.34;;;8.42;100.00
70546;BME280;58098;51.680;5.134;2022-12-22T07:19:19;100504.72;;;8.31;100.00
70546;BME280;58098;51.680;5.134;2022-12-22T07:21:44;100508.41;;;8.39;100.00
70546;BME280;58098;51.680;5.134;2022-12-22T07:24:12;100510.97;;;8.28;100.00
70546;BME280;58098;51.680;5.134;2022-12-22T07:26:37;100509.41;;;8.26;100.00
70546;BME280;58098;51.680;5.134;2022-12-22T07:29:02;100519.38;;;8.32;100.00
70546;BME280;58098;51.680;5.134;2022-12-22T07:31:28;100525.28;;;8.34;100.00
70546;BME280;58098;51.680;5.134;2022-12-22T07:33:53;100525.22;;;8.23;100.00
70546;BME280;58098;51.680;5.134;2022-12-22T07:36:19;100543.81;;;8.29;100.00
70546;BME280;58098;51.680;5.134;2022-12-22T07:38:47;100538.63;;;8.29;100.00
70546;BME280;58098;51.680;5.134;2022-12-22T07:41:14;100531.06;;;8.26;100.00
70546;BME280;58098;51.680;5.134;2022-12-22T07:44:00;100564.16;;;8.35;100.00
70546;BME280;58098;51.680;5.134;2022-12-22T07:46:28;100551.09;;;8.24;100.00
70546;BME280;58098;51.680;5.134;2022-12-22T07:48:54;100552.03;;;8.23;100.00
70546;BME280;58098;51.680;5.134;2022-12-22T07:51:39;100570.22;;;8.23;100.00
70546;BME280;58098;51.680;5.134;2022-12-22T07:54:07;100571.50;;;8.18;100.00
70546;BME280;58098;51.680;5.134;2022-12-22T07:56:32;100567.19;;;8.06;100.00
70546;BME280;58098;51.680;5.134;2022-12-22T07:58:58;100577.94;;;8.01;100.00
70546;BME280;58098;51.680;5.134;2022-12-22T08:01:24;100589.28;;;8.00;100.00
70546;BME280;58098;51.680;5.134;2022-12-22T08:03:50;100590.31;;;7.97;100.00
70546;BME280;58098;51.680;5.134;2022-12-22T08:06:16;100591.03;;;7.99;100.00
70546;BME280;58098;51.680;5.134;2022-12-22T08:08:41;100588.88;;;7.93;100.00
70546;BME280;58098;51.680;5.134;2022-12-22T08:11:06;100585.22;;;7.96;100.00
70546;BME280;58098;51.680;5.134;2022-12-22T08:13:32;100599.16;;;7.95;100.00
70546;BME280;58098;51.680;5.134;2022-12-22T08:16:06;100595.44;;;7.86;100.00
70546;BME280;58098;51.680;5.134;2022-12-22T08:18:32;100598.88;;;7.87;100.00
70546;BME280;58098;51.680;5.134;2022-12-22T08:20:57;100615.19;;;7.89;100.00
70546;BME280;58098;51.680;5.134;2022-12-22T08:23:23;100605.03;;;7.86;100.00
70546;BME280;58098;51.680;5.134;2022-12-22T08:25:56;100616.00;;;7.89;100.00
70546;BME280;58098;51.680;5.134;2022-12-22T08:28:24;100626.69;;;7.97;100.00
70546;BME280;58098;51.680;5.134;2022-12-22T08:30:50;100636.97;;;7.99;100.00
70546;BME280;58098;51.680;5.134;2022-12-22T08:33:15;100634.91;;;7.91;100.00
70546;BME280;58098;51.680;5.134;2022-12-22T08:35:41;100659.84;;;7.94;100.00
70546;BME280;58098;51.680;5.134;2022-12-22T08:38:07;100644.81;;;7.86;100.00
70546;BME280;58098;51.680;5.134;2022-12-22T08:40:34;100650.94;;;7.85;100.00
70546;BME280;58098;51.680;5.134;2022-12-22T08:43:06;100666.28;;;7.88;100.00
70546;BME280;58098;51.680;5.134;2022-12-22T08:45:33;100661.97;;;7.76;100.00
70546;BME280;58098;51.680;5.134;2022-12-22T08:47:58;100679.09;;;7.79;100.00
70546;BME280;58098;51.680;5.134;2022-12-22T08:50:24;100671.25;;;7.68;100.00
70546;BME280;58098;51.680;5.134;2022-12-22T08:52:49;100681.84;;;7.65;100.00
70546;BME280;58098;51.680;5.134;2022-12-22T08:55:14;100696.19;;;7.58;100.00
70546;BME280;58098;51.680;5.134;2022-12-22T08:57:40;100702.81;;;7.62;100.00
70546;BME280;58098;51.680;5.134;2022-12-22T09:00:07;100700.44;;;7.59;100.00
70546;BME280;58098;51.680;5.134;2022-12-22T09:02:34;100693.25;;;7.50;100.00
70546;BME280;58098;51.680;5.134;2022-12-22T09:04:59;100712.78;;;7.55;100.00
70546;BME280;58098;51.680;5.134;2022-12-22T09:07:25;100704.28;;;7.53;100.00
70546;BME280;58098;51.680;5.134;2022-12-22T09:09:50;100712.47;;;7.60;100.00
70546;BME280;58098;51.680;5.134;2022-12-22T09:12:16;100696.38;;;7.55;100.00
70546;BME280;58098;51.680;5.134;2022-12-22T09:14:41;100703.03;;;7.59;100.00
70546;BME280;58098;51.680;5.134;2022-12-22T09:17:07;100709.47;;;7.66;100.00
70546;BME280;58098;51.680;5.134;2022-12-22T09:19:32;100709.47;;;7.66;100.00
70546;BME280;58098;51.680;5.134;2022-12-22T09:21:58;100711.34;;;7.64;100.00
70546;BME280;58098;51.680;5.134;2022-12-22T09:24:23;100706.38;;;7.61;100.00
70546;BME280;58098;51.680;5.134;2022-12-22T09:26:48;100721.75;;;7.64;100.00
70546;BME280;58098;51.680;5.134;2022-12-22T09:29:14;100710.84;;;7.59;100.00
70546;BME280;58098;51.680;5.134;2022-12-22T09:31:40;100725.06;;;7.66;100.00
70546;BME280;58098;51.680;5.134;2022-12-22T09:34:06;100725.97;;;7.65;100.00
70546;BME280;58098;51.680;5.134;2022-12-22T09:36:31;100729.41;;;7.65;100.00
70546;BME280;58098;51.680;5.134;2022-12-22T09:38:58;100725.97;;;7.65;100.00
70546;BME280;58098;51.680;5.134;2022-12-22T09:46:46;100731.09;;;7.66;100.00
70546;BME280;58098;51.680;5.134;2022-12-22T09:49:14;100748.81;;;7.72;100.00
70546;BME280;58098;51.680;5.134;2022-12-22T09:51:43;100754.13;;;7.71;100.00
70546;BME280;58098;51.680;5.134;2022-12-22T09:54:11;100758.06;;;7.76;100.00
70546;BME280;58098;51.680;5.134;2022-12-22T09:56:38;100761.50;;;7.77;100.00
70546;BME280;58098;51.680;5.134;2022-12-22T09:59:15;100767.41;;;7.79;100.00
70546;BME280;58098;51.680;5.134;2022-12-22T10:02:11;100763.56;;;7.84;100.00
70546;BME280;58098;51.680;5.134;2022-12-22T10:05:08;100765.31;;;7.96;100.00
70546;BME280;58098;51.680;5.134;2022-12-22T10:07:38;100760.13;;;7.96;100.00
70546;BME280;58098;51.680;5.134;2022-12-22T10:10:17;100766.78;;;8.01;100.00
70546;BME280;58098;51.680;5.134;2022-12-22T10:12:44;100762.91;;;8.06;100.00
70546;BME280;58098;51.680;5.134;2022-12-22T10:15:10;100765.19;;;8.11;100.00
70546;BME280;58098;51.680;5.134;2022-12-22T10:17:36;100754.91;;;8.09;100.00
70546;BME280;58098;51.680;5.134;2022-12-22T10:22:51;100757.56;;;8.20;100.00
70546;BME280;58098;51.680;5.134;2022-12-22T10:28:05;100764.06;;;8.15;100.00
70546;BME280;58098;51.680;5.134;2022-12-22T10:30:35;100770.28;;;8.12;100.00
70546;BME280;58098;51.680;5.134;2022-12-22T10:33:03;100779.97;;;8.10;100.00
70546;BME280;58098;51.680;5.134;2022-12-22T10:35:56;100776.28;;;8.25;100.00
70546;BME280;58098;51.680;5.134;2022-12-22T10:38:36;100763.22;;;8.14;100.00
70546;BME280;58098;51.680;5.134;2022-12-22T10:41:20;100769.63;;;8.21;100.00
70546;BME280;58098;51.680;5.134;2022-12-22T10:43:50;100772.94;;;8.23;100.00
70546;BME280;58098;51.680;5.134;2022-12-22T10:46:17;100741.41;;;8.04;100.00
70546;BME280;58098;51.680;5.134;2022-12-22T10:48:43;100771.06;;;8.25;100.00
70546;BME280;58098;51.680;5.134;2022-12-22T10:51:11;100771.19;;;8.36;100.00
70546;BME280;58098;51.680;5.134;2022-12-22T10:53:46;100769.13;;;8.29;100.00
70546;BME280;58098;51.680;5.134;2022-12-22T10:56:25;100777.44;;;8.34;100.00
70546;BME280;58098;51.680;5.134;2022-12-22T10:58:52;100786.69;;;8.38;100.00
70546;BME280;58098;51.680;5.134;2022-12-22T11:01:30;100787.63;;;8.37;100.00
70546;BME280;58098;51.680;5.134;2022-12-22T11:03:57;100781.72;;;8.22;100.00
70546;BME280;58098;51.680;5.134;2022-12-22T11:06:39;100773.22;;;8.08;100.00
70546;BME280;58098;51.680;5.134;2022-12-22T11:09:04;100786.41;;;8.17;100.00
70546;BME280;58098;51.680;5.134;2022-12-22T11:12:12;100786.28;;;8.06;100.00
70546;BME280;58098;51.680;5.134;2022-12-22T11:20:34;100797.34;;;7.97;100.00
70546;BME280;58098;51.680;5.134;2022-12-22T11:23:16;100798.78;;;8.01;100.00
70546;BME280;58098;51.680;5.134;2022-12-22T11:25:56;100814.16;;;8.17;100.00
70546;BME280;58098;51.680;5.134;2022-12-22T11:29:27;100815.19;;;8.14;100.00
70546;BME280;58098;51.680;5.134;2022-12-22T11:31:54;100813.13;;;8.07;100.00
70546;BME280;58098;51.680;5.134;2022-12-22T11:39:46;100822.25;;;8.25;100.00
70546;BME280;58098;51.680;5.134;2022-12-22T11:53:00;100809.34;;;8.23;100.00
70546;BME280;58098;51.680;5.134;2022-12-22T11:58:31;100802.59;;;8.33;100.00
70546;BME280;58098;51.680;5.134;2022-12-22T12:06:35;100803.50;;;8.45;100.00
70546;BME280;58098;51.680;5.134;2022-12-22T12:09:20;100798.22;;;8.46;100.00
70546;BME280;58098;51.680;5.134;2022-12-22T12:14:43;100790.25;;;8.60;100.00
70546;BME280;58098;51.680;5.134;2022-12-22T12:17:19;100783.44;;;8.71;100.00
70546;BME280;58098;51.680;5.134;2022-12-22T12:25:30;100773.16;;;8.93;100.00
70546;BME280;58098;51.680;5.134;2022-12-22T12:30:44;100760.13;;;8.93;100.00
70546;BME280;58098;51.680;5.134;2022-12-22T12:43:28;100769.81;;;8.91;100.00
70546;BME280;58098;51.680;5.134;2022-12-22T12:45:53;100765.09;;;8.96;100.00
70546;BME280;58098;51.680;5.134;2022-12-22T12:50:48;100736.72;;;8.93;100.00
70546;BME280;58098;51.680;5.134;2022-12-22T12:53:14;100745.59;;;9.01;100.00
70546;BME280;58098;51.680;5.134;2022-12-22T12:58:09;100752.25;;;9.05;100.00
70546;BME280;58098;51.680;5.134;2022-12-22T13:03:01;100742.28;;;8.99;100.00
70546;BME280;58098;51.680;5.134;2022-12-22T13:05:28;100752.56;;;8.90;100.00
70546;BME280;58098;51.680;5.134;2022-12-22T13:20:59;100765.28;;;8.82;100.00
70546;BME280;58098;51.680;5.134;2022-12-22T13:23:37;100767.28;;;8.78;100.00
70546;BME280;58098;51.680;5.134;2022-12-22T13:26:07;100756.38;;;8.73;100.00
70546;BME280;58098;51.680;5.134;2022-12-22T13:28:35;100758.03;;;8.74;100.00
70546;BME280;58098;51.680;5.134;2022-12-22T13:31:12;100746.34;;;8.80;100.00
70546;BME280;58098;51.680;5.134;2022-12-22T13:33:38;100735.25;;;8.78;100.00
70546;BME280;58098;51.680;5.134;2022-12-22T13:36:07;100715.34;;;8.77;100.00
70546;BME280;58098;51.680;5.134;2022-12-22T13:38:39;100715.59;;;8.74;100.00
70546;BME280;58098;51.680;5.134;2022-12-22T13:41:19;100720.47;;;8.78;100.00
70546;BME280;58098;51.680;5.134;2022-12-22T13:43:52;100736.44;;;8.85;100.00
70546;BME280;58098;51.680;5.134;2022-12-22T13:46:18;100719.72;;;8.76;100.00
70546;BME280;58098;51.680;5.134;2022-12-22T13:48:46;100725.13;;;8.86;100.00
70546;BME280;58098;51.680;5.134;2022-12-22T13:53:50;100709.41;;;8.98;100.00
70546;BME280;58098;51.680;5.134;2022-12-22T13:56:19;100703.34;;;8.87;100.00
70546;BME280;58098;51.680;5.134;2022-12-22T13:58:50;100713.19;;;8.94;100.00
70546;BME280;58098;51.680;5.134;2022-12-22T14:01:18;100686.66;;;8.78;100.00
70546;BME280;58098;51.680;5.134;2022-12-22T14:06:51;100700.72;;;8.87;100.00
70546;BME280;58098;51.680;5.134;2022-12-22T14:09:10;100694.47;;;8.89;100.00
70546;BME280;58098;51.680;5.134;2022-12-22T14:11:36;100670.56;;;8.73;100.00
70546;BME280;58098;51.680;5.134;2022-12-22T14:14:06;100683.47;;;8.86;100.00
70546;BME280;58098;51.680;5.134;2022-12-22T14:16:32;100686.41;;;8.81;100.00
70546;BME280;58098;51.680;5.134;2022-12-22T14:18:57;100678.94;;;8.77;100.00
70546;BME280;58098;51.680;5.134;2022-12-22T14:21:24;100675.84;;;8.72;100.00
70546;BME280;58098;51.680;5.134;2022-12-22T14:23:49;100691.72;;;8.80;100.00
70546;BME280;58098;51.680;5.134;2022-12-22T14:26:18;100674.22;;;8.71;100.00
70546;BME280;58098;51.680;5.134;2022-12-22T14:28:49;100688.63;;;8.75;100.00
70546;BME280;58098;51.680;5.134;2022-12-22T14:31:18;100672.03;;;8.64;100.00
70546;BME280;58098;51.680;5.134;2022-12-22T14:33:51;100662.81;;;8.60;100.00
70546;BME280;58098;51.680;5.134;2022-12-22T14:36:23;100667.81;;;8.63;100.00
70546;BME280;58098;51.680;5.134;2022-12-22T14:38:51;100674.63;;;8.64;100.00
70546;BME280;58098;51.680;5.134;2022-12-22T14:41:40;100669.66;;;8.61;100.00
70546;BME280;58098;51.680;5.134;2022-12-22T14:44:33;100664.69;;;8.58;100.00
70546;BME280;58098;51.680;5.134;2022-12-22T14:47:06;100669.06;;;8.58;100.00
70546;BME280;58098;51.680;5.134;2022-12-22T14:50:00;100672.59;;;8.57;100.00
70546;BME280;58098;51.680;5.134;2022-12-22T14:52:44;100648.22;;;8.47;100.00
70546;BME280;58098;51.680;5.134;2022-12-22T14:55:30;100656.41;;;8.53;100.00
70546;BME280;58098;51.680;5.134;2022-12-22T15:00:36;100646.69;;;8.44;100.00
70546;BME280;58098;51.680;5.134;2022-12-22T15:03:05;100648.88;;;8.38;100.00